createdAt,value
2022-11-12T00:00:20.329Z,11
2022-11-12T00:05:20.407Z,11
2022-11-12T00:10:20.374Z,11
2022-11-12T00:15:20.366Z,11
2022-11-12T00:20:20.518Z,10.9
2022-11-12T00:25:20.409Z,10.9
2022-11-12T00:30:20.450Z,10.9
2022-11-12T00:35:20.446Z,10.9
2022-11-12T00:40:20.562Z,10.8
2022-11-12T00:45:20.699Z,10.8
2022-11-12T00:50:20.508Z,10.7
2022-11-12T00:55:20.509Z,10.7
2022-11-12T01:00:20.631Z,10.7
2022-11-12T01:05:20.510Z,10.6
2022-11-12T01:10:20.522Z,10.6
2022-11-12T01:15:20.592Z,10.6
2022-11-12T01:20:20.785Z,10.5
2022-11-12T01:25:20.660Z,10.4
2022-11-12T01:30:20.994Z,10.3
2022-11-12T01:35:20.916Z,10.3
2022-11-12T01:40:20.902Z,10.2
2022-11-12T01:45:20.792Z,10.2
2022-11-12T01:50:20.781Z,10.1
2022-11-12T01:55:20.789Z,10
2022-11-12T02:00:20.982Z,9.9
2022-11-12T02:05:21.048Z,9.9
2022-11-12T02:10:20.843Z,9.9
2022-11-12T02:15:20.831Z,9.9
2022-11-12T02:20:20.952Z,9.8
2022-11-12T02:25:20.835Z,9.7
2022-11-12T02:30:20.920Z,9.7
2022-11-12T02:35:20.843Z,9.7
2022-11-12T02:40:21.012Z,9.6
2022-11-12T02:45:20.883Z,9.6
2022-11-12T02:50:20.897Z,9.7
2022-11-12T02:55:20.923Z,9.7
2022-11-12T03:00:21.024Z,9.6
2022-11-12T03:05:21.172Z,9.6
2022-11-12T03:10:20.919Z,9.6
2022-11-12T03:15:20.965Z,9.6
2022-11-12T03:20:21.132Z,9.6
2022-11-12T03:25:21.017Z,9.6
2022-11-12T03:30:21.130Z,9.6
2022-11-12T03:35:21.125Z,9.6
2022-11-12T03:40:21.298Z,9.6
2022-11-12T03:45:21.182Z,9.5
2022-11-12T03:50:21.346Z,9.5
2022-11-12T03:55:21.408Z,9.5
2022-11-12T04:00:21.535Z,9.5
2022-11-12T04:05:21.615Z,9.5
2022-11-12T04:10:21.475Z,9.5
2022-11-12T04:15:21.473Z,9.5
2022-11-12T04:20:21.709Z,9.5
2022-11-12T04:25:21.576Z,9.4
2022-11-12T04:30:21.585Z,9.4
2022-11-12T04:35:21.572Z,9.4
2022-11-12T04:40:21.757Z,9.3
2022-11-12T04:45:21.639Z,9.3
2022-11-12T04:50:21.637Z,9.2
2022-11-12T04:55:21.645Z,9.1
2022-11-12T05:00:21.861Z,9.1
2022-11-12T05:05:21.989Z,9
2022-11-12T05:10:21.761Z,8.9
2022-11-12T05:15:21.772Z,8.9
2022-11-12T05:20:21.972Z,8.8
2022-11-12T05:25:21.850Z,8.6
2022-11-12T05:30:21.836Z,8.6
2022-11-12T05:35:21.854Z,8.5
2022-11-12T05:40:22.170Z,8.5
2022-11-12T05:45:21.952Z,8.5
2022-11-12T05:50:21.952Z,8.5
2022-11-12T05:55:21.978Z,8.5
2022-11-12T06:00:22.248Z,8.5
2022-11-12T06:05:22.267Z,8.5
2022-11-12T06:10:22.143Z,8.4
2022-11-12T06:15:22.037Z,8.3
2022-11-12T06:20:22.233Z,8.2
2022-11-12T06:25:21.971Z,8.1
2022-11-12T06:30:25.613Z,8.1
2022-11-12T06:35:21.964Z,8.2
2022-11-12T06:40:22.082Z,8.2
2022-11-12T06:45:21.963Z,8.1
2022-11-12T06:50:21.962Z,8.1
2022-11-12T06:55:21.956Z,8
2022-11-12T07:00:22.078Z,8.1
2022-11-12T07:05:21.961Z,8.2
2022-11-12T07:10:21.963Z,8.3
2022-11-12T07:15:21.962Z,8.4
2022-11-12T07:20:22.072Z,8.5
2022-11-12T07:25:21.966Z,8.5
2022-11-12T07:30:21.956Z,8.5
2022-11-12T07:35:21.959Z,8.6
2022-11-12T07:40:22.072Z,8.7
2022-11-12T07:45:21.962Z,8.8
2022-11-12T07:50:21.959Z,8.8
2022-11-12T07:55:21.959Z,8.9
2022-11-12T08:00:22.073Z,8.9
2022-11-12T08:05:21.955Z,8.9
2022-11-12T08:10:21.950Z,9
2022-11-12T08:15:22.048Z,9.1
2022-11-12T08:20:22.098Z,9.2
2022-11-12T08:25:21.951Z,9.3
2022-11-12T08:30:21.958Z,9.5
2022-11-12T08:35:21.954Z,9.6
2022-11-12T08:40:22.068Z,9.7
2022-11-12T08:45:21.955Z,9.8
2022-11-12T08:50:21.957Z,10
2022-11-12T08:55:22.141Z,10.1
2022-11-12T09:00:22.060Z,10.2
2022-11-12T09:05:22.015Z,10.3
2022-11-12T09:10:21.962Z,10.4
2022-11-12T09:15:36.102Z,10.5
2022-11-12T09:20:22.065Z,10.7
2022-11-12T09:25:21.957Z,10.9
2022-11-12T09:30:21.955Z,11.1
2022-11-12T09:35:21.945Z,11.4
2022-11-12T09:40:22.151Z,11.6
2022-11-12T09:45:21.936Z,11.8
2022-11-12T09:50:22.013Z,12
2022-11-12T09:55:21.940Z,12.2
2022-11-12T10:00:22.069Z,12.4
2022-11-12T10:05:21.946Z,12.5
2022-11-12T10:10:21.955Z,12.7
2022-11-12T10:15:21.958Z,12.8
2022-11-12T10:20:22.126Z,12.9
2022-11-12T10:25:21.938Z,13
2022-11-12T10:30:21.942Z,13.1
2022-11-12T10:35:21.984Z,13.2
2022-11-12T10:40:22.074Z,13.3
2022-11-12T10:45:21.949Z,13.4
2022-11-12T10:50:21.937Z,13.5
2022-11-12T10:55:21.934Z,13.5
2022-11-12T11:00:22.070Z,13.6
2022-11-12T11:05:21.930Z,13.7
2022-11-12T11:10:21.947Z,13.8
2022-11-12T11:15:21.940Z,13.9
2022-11-12T11:20:22.050Z,14
2022-11-12T11:25:21.938Z,14.1
2022-11-12T11:30:21.988Z,14.2
2022-11-12T11:35:21.923Z,14.2
2022-11-12T11:40:22.041Z,14.4
2022-11-12T11:45:21.922Z,14.5
2022-11-12T11:50:21.934Z,14.7
2022-11-12T11:55:21.917Z,14.9
2022-11-12T12:00:22.041Z,15.2
2022-11-12T12:05:21.969Z,15.4
2022-11-12T12:10:22.934Z,15.6
2022-11-12T12:15:22.060Z,15.7
2022-11-12T12:20:22.088Z,15.8
2022-11-12T12:25:21.923Z,16
2022-11-12T12:30:21.914Z,16.1
2022-11-12T12:35:21.911Z,16.2
2022-11-12T12:40:22.059Z,16.4
2022-11-12T12:45:22.056Z,16.6
2022-11-12T12:50:21.890Z,16.7
2022-11-12T12:55:21.898Z,16.8
2022-11-12T13:00:22.029Z,16.9
2022-11-12T13:05:21.937Z,16.9
2022-11-12T13:10:21.944Z,17
2022-11-12T13:15:22.106Z,17.1
2022-11-12T13:20:22.094Z,17.1
2022-11-12T13:25:21.927Z,17.2
2022-11-12T13:30:22.111Z,17.2
2022-11-12T13:35:21.932Z,17.2
2022-11-12T13:40:22.647Z,17.1
2022-11-12T13:45:21.988Z,17
2022-11-12T13:50:21.939Z,16.9
2022-11-12T13:55:21.939Z,16.8
2022-11-12T14:00:22.097Z,16.7
2022-11-12T14:05:21.948Z,16.6
2022-11-12T14:10:22.022Z,16.5
2022-11-12T14:15:21.945Z,16.5
2022-11-12T14:20:22.055Z,16.5
2022-11-12T14:25:21.930Z,16.4
2022-11-12T14:30:21.947Z,16.3
2022-11-12T14:35:21.925Z,16.3
2022-11-12T14:40:22.042Z,16.1
2022-11-12T14:45:21.927Z,16
2022-11-12T14:50:21.920Z,15.9
2022-11-12T14:55:21.916Z,15.8
2022-11-12T15:00:22.045Z,15.7
2022-11-12T15:05:21.926Z,15.6
2022-11-12T15:10:22.133Z,15.5
2022-11-12T15:15:21.982Z,15.3
2022-11-12T15:20:22.063Z,15.1
2022-11-12T15:25:22.066Z,15
2022-11-12T15:30:21.945Z,14.9
2022-11-12T15:35:21.947Z,14.8
2022-11-12T15:40:22.068Z,14.7
2022-11-12T15:45:21.952Z,14.6
2022-11-12T15:50:21.940Z,14.5
2022-11-12T15:55:22.179Z,14.4
2022-11-12T16:00:22.108Z,14.3
2022-11-12T16:05:22.076Z,14.2
2022-11-12T16:10:21.980Z,14
2022-11-12T16:15:22.000Z,13.8
2022-11-12T16:20:22.092Z,13.7
2022-11-12T16:25:21.990Z,13.5
2022-11-12T16:30:21.975Z,13.4
2022-11-12T16:35:21.975Z,13.3
2022-11-12T16:40:22.099Z,13.2
2022-11-12T16:45:21.974Z,13.1
2022-11-12T16:50:21.964Z,12.9
2022-11-12T16:55:21.988Z,12.8
2022-11-12T17:00:22.076Z,12.7
2022-11-12T17:05:21.969Z,12.7
2022-11-12T17:10:21.969Z,12.5
2022-11-12T17:15:21.962Z,12.5
2022-11-12T17:20:22.093Z,12.4
2022-11-12T17:25:21.995Z,12.3
2022-11-12T17:30:21.957Z,12.2
2022-11-12T17:35:21.952Z,12.1
2022-11-12T17:40:22.080Z,12
2022-11-12T17:45:21.949Z,11.9
2022-11-12T17:50:21.960Z,11.8
2022-11-12T17:55:21.955Z,11.6
2022-11-12T18:00:22.101Z,11.5
2022-11-12T18:05:21.941Z,11.4
2022-11-12T18:10:21.958Z,11.4
2022-11-12T18:15:21.942Z,11.3
2022-11-12T18:20:22.068Z,11.2
2022-11-12T18:25:21.955Z,11.2
2022-11-12T18:30:21.969Z,11.1
2022-11-12T18:35:24.663Z,11
2022-11-12T18:40:22.254Z,10.9
2022-11-12T18:45:21.967Z,10.8
2022-11-12T18:50:21.933Z,10.8
2022-11-12T18:55:21.976Z,10.8
2022-11-12T19:00:22.266Z,10.9
2022-11-12T19:05:21.934Z,10.9
2022-11-12T19:10:21.940Z,10.8
2022-11-12T19:15:26.524Z,10.8
2022-11-12T19:20:22.086Z,10.7
2022-11-12T19:25:21.934Z,10.7
2022-11-12T19:30:22.270Z,10.6
2022-11-12T19:35:21.932Z,10.5
2022-11-12T19:40:22.077Z,10.5
2022-11-12T19:45:21.942Z,10.6
2022-11-12T19:50:24.644Z,10.6
2022-11-12T19:55:21.923Z,10.6
2022-11-12T20:00:22.251Z,10.7
2022-11-12T20:05:21.924Z,10.8
2022-11-12T20:10:21.942Z,10.9
2022-11-12T20:15:22.004Z,11.1
2022-11-12T20:20:22.057Z,11.2
2022-11-12T20:25:21.962Z,11.3
2022-11-12T20:30:21.926Z,11.3
2022-11-12T20:35:22.541Z,11.4
2022-11-12T20:40:22.039Z,11.4
2022-11-12T20:45:22.230Z,11.5
2022-11-12T20:50:22.241Z,11.5
2022-11-12T20:55:21.929Z,11.5
2022-11-12T21:00:24.232Z,11.6
2022-11-12T21:05:21.980Z,11.6
2022-11-12T21:10:21.933Z,11.7
2022-11-12T21:15:21.913Z,11.7
2022-11-12T21:20:22.254Z,11.7
2022-11-12T21:25:21.973Z,11.7
2022-11-12T21:30:21.990Z,11.8
2022-11-12T21:35:22.003Z,11.8
2022-11-12T21:40:22.026Z,11.8
2022-11-12T21:45:21.988Z,11.8
2022-11-12T21:50:22.087Z,11.8
2022-11-12T21:55:21.895Z,11.8
2022-11-12T22:00:43.086Z,11.9
2022-11-12T22:05:21.920Z,11.9
2022-11-12T22:10:21.902Z,11.9
2022-11-12T22:15:24.265Z,11.9
2022-11-12T22:20:22.017Z,11.9
2022-11-12T22:25:21.977Z,12
2022-11-12T22:30:22.158Z,12
2022-11-12T22:35:21.977Z,11.9
2022-11-12T22:40:22.306Z,12
2022-11-12T22:45:21.903Z,12
2022-11-12T22:50:22.279Z,12
2022-11-12T22:55:22.006Z,12
2022-11-12T23:00:22.846Z,12
2022-11-12T23:05:21.989Z,12
2022-11-12T23:10:22.178Z,12
2022-11-12T23:15:21.897Z,12
2022-11-12T23:20:22.013Z,12.1
2022-11-12T23:25:21.891Z,12.1
2022-11-12T23:30:22.406Z,12.1
2022-11-12T23:35:22.051Z,12.1
2022-11-12T23:40:25.128Z,12.1
2022-11-12T23:45:21.959Z,12.1
2022-11-12T23:50:22.268Z,12.1
2022-11-12T23:55:21.889Z,12.1
